Time;durP1;ratioP1;P1;durP2;ratioP2;P2;SDS_P1;SDS_P2;PMS_P1;PMS_P2;Temp;Humidity;BMP_temperature;BMP_pressure;BME280_temperature;BME280_humidity;BME280_pressure;Samples;Min_cycle;Max_cycle;Signal;HPM_P1;HPM_P2
2022/03/07 00:01:58;;;;;;;0.60;0.60;;;;;;;;;;5013499;28;20180;-63
2022/03/07 00:04:24;;;;;;;0.80;0.80;;;;;;;;;;5013686;28;20408;-63
2022/03/07 00:06:50;;;;;;;0.80;0.80;;;;;;;;;;5013613;28;20296;-63
2022/03/07 00:09:16;;;;;;;0.70;0.70;;;;;;;;;;5013669;28;20416;-63
2022/03/07 00:11:43;;;;;;;0.75;0.75;;;;;;;;;;5013194;28;20943;-63
2022/03/07 00:14:09;;;;;;;0.70;0.70;;;;;;;;;;5013105;28;20177;-62
2022/03/07 00:16:35;;;;;;;0.60;0.60;;;;;;;;;;5013385;28;20178;-63
2022/03/07 00:19:01;;;;;;;0.60;0.60;;;;;;;;;;5013575;28;20181;-63
2022/03/07 00:21:27;;;;;;;0.70;0.70;;;;;;;;;;5013135;28;20216;-63
2022/03/07 00:23:53;;;;;;;0.80;0.80;;;;;;;;;;5013376;28;20672;-63
2022/03/07 00:26:19;;;;;;;0.70;0.70;;;;;;;;;;5013041;28;20468;-63
2022/03/07 00:28:46;;;;;;;0.70;0.70;;;;;;;;;;5013264;28;20177;-63
2022/03/07 00:31:12;;;;;;;1.55;1.55;;;;;;;;;;5012855;28;20678;-62
2022/03/07 00:33:38;;;;;;;0.60;0.60;;;;;;;;;;5013204;28;20173;-63
2022/03/07 00:36:04;;;;;;;0.50;0.50;;;;;;;;;;5013130;28;20409;-63
2022/03/07 00:38:30;;;;;;;0.50;0.50;;;;;;;;;;5013068;28;20181;-63
2022/03/07 00:40:56;;;;;;;0.60;0.60;;;;;;;;;;5012710;28;20575;-63
2022/03/07 00:43:22;;;;;;;0.60;0.60;;;;;;;;;;5013171;28;20181;-63
2022/03/07 00:45:49;;;;;;;0.60;0.60;;;;;;;;;;5012799;28;20759;-63
2022/03/07 00:48:15;;;;;;;0.60;0.60;;;;;;;;;;5012927;28;20784;-63
2022/03/07 00:50:42;;;;;;;0.50;0.50;;;;;;;;;;5012549;28;20193;-63
2022/03/07 00:53:11;;;;;;;0.55;0.55;;;;;;;;;;5012810;28;20169;-64
2022/03/07 00:55:38;;;;;;;0.70;0.70;;;;;;;;;;5012815;28;20170;-63
2022/03/07 00:58:04;;;;;;;0.70;0.70;;;;;;;;;;5012698;28;20177;-63
2022/03/07 01:00:31;;;;;;;0.60;0.60;;;;;;;;;;5012322;28;20280;-63
2022/03/07 01:02:56;;;;;;;0.98;0.98;;;;;;;;;;5012533;28;20190;-62
2022/03/07 01:05:23;;;;;;;0.80;0.80;;;;;;;;;;5012576;28;20207;-63
2022/03/07 01:07:48;;;;;;;0.90;0.90;;;;;;;;;;5012492;28;20488;-63
2022/03/07 01:10:14;;;;;;;1.13;1.13;;;;;;;;;;5012170;28;20688;-63
2022/03/07 01:12:41;;;;;;;0.80;0.80;;;;;;;;;;5012497;28;20407;-63
2022/03/07 01:15:08;;;;;;;0.80;0.80;;;;;;;;;;5012443;28;20181;-63
2022/03/07 01:17:34;;;;;;;0.95;0.95;;;;;;;;;;5012411;28;20216;-63
2022/03/07 01:20:00;;;;;;;0.80;0.80;;;;;;;;;;5012210;28;20197;-63
2022/03/07 01:22:26;;;;;;;0.80;0.80;;;;;;;;;;5012096;28;20180;-63
2022/03/07 01:24:52;;;;;;;0.90;0.90;;;;;;;;;;5012236;28;20459;-63
2022/03/07 01:27:18;;;;;;;0.75;0.75;;;;;;;;;;5012171;28;20901;-63
2022/03/07 01:29:44;;;;;;;0.70;0.70;;;;;;;;;;5012109;28;20255;-63
2022/03/07 01:32:10;;;;;;;1.00;1.00;;;;;;;;;;5012071;28;20519;-63
2022/03/07 01:34:36;;;;;;;1.27;1.27;;;;;;;;;;5012447;28;20518;-63
2022/03/07 01:37:02;;;;;;;0.90;0.90;;;;;;;;;;5012272;28;20463;-63
2022/03/07 01:39:28;;;;;;;0.98;0.98;;;;;;;;;;5012082;28;20169;-63
2022/03/07 01:41:54;;;;;;;0.60;0.60;;;;;;;;;;5011823;28;20176;-63
2022/03/07 01:44:21;;;;;;;0.97;0.97;;;;;;;;;;5012050;28;20421;-63
2022/03/07 01:46:47;;;;;;;0.80;0.80;;;;;;;;;;5011594;28;20503;-63
2022/03/07 01:49:13;;;;;;;0.70;0.70;;;;;;;;;;5011509;28;20576;-63
2022/03/07 01:51:43;;;;;;;0.80;0.80;;;;;;;;;;5011510;28;20186;-63
2022/03/07 01:54:10;;;;;;;0.85;0.85;;;;;;;;;;5010538;28;20592;-63
2022/03/07 01:56:36;;;;;;;0.50;0.50;;;;;;;;;;5011388;28;20170;-63
2022/03/07 01:59:03;;;;;;;0.50;0.50;;;;;;;;;;5011877;28;20257;-63
2022/03/07 02:01:29;;;;;;;0.60;0.60;;;;;;;;;;5011511;28;20216;-63
2022/03/07 02:03:55;;;;;;;0.40;0.40;;;;;;;;;;5011769;28;20213;-63
2022/03/07 02:06:22;;;;;;;0.60;0.60;;;;;;;;;;5011688;28;20641;-63
2022/03/07 02:08:48;;;;;;;0.70;0.70;;;;;;;;;;5011917;28;20600;-63
2022/03/07 02:11:15;;;;;;;0.70;0.70;;;;;;;;;;5011414;28;20201;-63
2022/03/07 02:13:41;;;;;;;0.60;0.60;;;;;;;;;;5011829;28;20172;-63
2022/03/07 02:16:07;;;;;;;0.80;0.80;;;;;;;;;;5011769;28;20256;-63
2022/03/07 02:18:33;;;;;;;0.60;0.60;;;;;;;;;;5011618;28;20422;-63
2022/03/07 02:21:03;;;;;;;0.60;0.60;;;;;;;;;;5011330;28;20486;-63
2022/03/07 02:23:29;;;;;;;0.63;0.63;;;;;;;;;;5011634;28;20178;-63
2022/03/07 02:25:55;;;;;;;0.60;0.60;;;;;;;;;;5011557;28;20256;-63
2022/03/07 02:28:21;;;;;;;0.60;0.60;;;;;;;;;;5011600;28;20173;-63
2022/03/07 02:30:50;;;;;;;0.70;0.70;;;;;;;;;;5011309;28;20917;-63
2022/03/07 02:33:16;;;;;;;0.60;0.60;;;;;;;;;;5011434;28;20651;-63
2022/03/07 02:35:42;;;;;;;0.80;0.80;;;;;;;;;;5011510;28;20205;-63
2022/03/07 02:38:13;;;;;;;1.13;1.13;;;;;;;;;;5011493;28;20408;-63
2022/03/07 02:40:39;;;;;;;0.82;0.82;;;;;;;;;;5011148;28;20429;-63
2022/03/07 02:43:05;;;;;;;0.63;0.63;;;;;;;;;;5011456;28;20675;-63
2022/03/07 02:45:31;;;;;;;0.90;0.90;;;;;;;;;;5011390;28;20201;-63
2022/03/07 02:47:57;;;;;;;0.97;0.97;;;;;;;;;;5011269;28;20412;-63
2022/03/07 02:50:23;;;;;;;1.50;1.50;;;;;;;;;;5010976;28;20424;-63
2022/03/07 02:52:49;;;;;;;0.70;0.70;;;;;;;;;;5011483;28;20598;-62
2022/03/07 02:55:15;;;;;;;1.00;1.00;;;;;;;;;;5011096;28;20263;-63
2022/03/07 02:57:44;;;;;;;0.90;0.90;;;;;;;;;;5011229;28;20451;-63
2022/03/07 03:00:10;;;;;;;0.85;0.85;;;;;;;;;;5010378;28;20448;-63
2022/03/07 03:02:36;;;;;;;1.00;1.00;;;;;;;;;;5011367;28;20637;-63
2022/03/07 03:05:02;;;;;;;1.60;1.60;;;;;;;;;;5011095;28;20204;-63
2022/03/07 03:07:28;;;;;;;1.00;1.00;;;;;;;;;;5011283;28;20456;-62
2022/03/07 03:09:55;;;;;;;0.87;0.87;;;;;;;;;;5013070;28;20424;-63
2022/03/07 03:12:24;;;;;;;1.00;1.00;;;;;;;;;;5015033;28;20409;-63
2022/03/07 03:14:50;;;;;;;1.10;1.10;;;;;;;;;;5014901;28;20169;-62
2022/03/07 03:17:16;;;;;;;1.00;1.00;;;;;;;;;;5014973;28;20184;-62
2022/03/07 03:19:42;;;;;;;1.77;1.73;;;;;;;;;;5014829;28;20427;-63
2022/03/07 03:22:08;;;;;;;0.90;0.90;;;;;;;;;;5014339;28;20249;-63
2022/03/07 03:24:34;;;;;;;0.90;0.90;;;;;;;;;;5014451;28;20669;-63
2022/03/07 03:27:00;;;;;;;0.80;0.80;;;;;;;;;;5014554;28;20178;-62
2022/03/07 03:29:26;;;;;;;0.70;0.70;;;;;;;;;;5014238;28;20447;-63
2022/03/07 03:31:52;;;;;;;0.83;0.83;;;;;;;;;;5014132;28;20420;-63
2022/03/07 03:34:18;;;;;;;0.80;0.80;;;;;;;;;;5014375;28;20917;-63
2022/03/07 03:36:45;;;;;;;0.70;0.70;;;;;;;;;;5014184;28;20181;-63
2022/03/07 03:39:11;;;;;;;0.68;0.68;;;;;;;;;;5014170;28;20405;-63
2022/03/07 03:41:37;;;;;;;0.90;0.90;;;;;;;;;;5013827;28;20193;-63
2022/03/07 03:44:03;;;;;;;0.80;0.80;;;;;;;;;;5014365;28;20178;-62
2022/03/07 03:46:29;;;;;;;0.70;0.70;;;;;;;;;;5014192;28;20463;-63
2022/03/07 03:48:55;;;;;;;0.70;0.70;;;;;;;;;;5014032;28;20201;-63
2022/03/07 03:51:21;;;;;;;1.53;1.53;;;;;;;;;;5013633;28;20773;-63
2022/03/07 03:53:47;;;;;;;0.90;0.90;;;;;;;;;;5013606;28;20401;-63
2022/03/07 03:56:14;;;;;;;1.08;1.08;;;;;;;;;;5013850;28;20447;-63
2022/03/07 03:58:40;;;;;;;0.90;0.90;;;;;;;;;;5013826;28;20283;-63
2022/03/07 04:01:06;;;;;;;1.07;1.07;;;;;;;;;;5014459;28;20444;-63
2022/03/07 04:03:32;;;;;;;0.75;0.75;;;;;;;;;;5013738;28;20412;-63
2022/03/07 04:05:58;;;;;;;0.90;0.90;;;;;;;;;;5013765;28;20300;-63
2022/03/07 04:08:26;;;;;;;1.00;1.00;;;;;;;;;;5013513;28;20413;-63
2022/03/07 04:10:52;;;;;;;0.90;0.90;;;;;;;;;;5013293;28;20435;-63
2022/03/07 04:13:18;;;;;;;0.93;0.93;;;;;;;;;;5013539;28;20716;-63
2022/03/07 04:15:44;;;;;;;0.80;0.80;;;;;;;;;;5013530;28;20641;-62
2022/03/07 04:18:10;;;;;;;1.43;1.43;;;;;;;;;;5013557;28;20182;-63
2022/03/07 04:20:36;;;;;;;1.10;1.10;;;;;;;;;;5012725;28;20482;-62
2022/03/07 04:23:02;;;;;;;1.00;1.00;;;;;;;;;;5013351;28;20550;-63
2022/03/07 04:25:28;;;;;;;1.00;1.00;;;;;;;;;;5013125;28;20463;-63
2022/03/07 04:27:54;;;;;;;0.80;0.80;;;;;;;;;;5013515;28;20585;-62
2022/03/07 04:30:20;;;;;;;1.13;1.13;;;;;;;;;;5012861;28;20204;-63
2022/03/07 04:32:46;;;;;;;0.88;0.88;;;;;;;;;;5013206;28;20177;-63
2022/03/07 04:35:12;;;;;;;0.90;0.90;;;;;;;;;;5013170;28;20256;-63
2022/03/07 04:37:42;;;;;;;0.90;0.90;;;;;;;;;;5013157;28;20416;-63
2022/03/07 04:40:12;;;;;;;1.00;1.00;;;;;;;;;;5012642;28;20684;-63
2022/03/07 04:42:38;;;;;;;1.00;1.00;;;;;;;;;;5013072;28;20187;-63
2022/03/07 04:45:05;;;;;;;1.00;1.00;;;;;;;;;;5012944;28;20209;-63
2022/03/07 04:47:31;;;;;;;1.00;1.00;;;;;;;;;;5012970;28;20228;-63
2022/03/07 04:49:56;;;;;;;1.33;1.33;;;;;;;;;;5012789;28;20189;-63
2022/03/07 04:52:22;;;;;;;1.10;1.10;;;;;;;;;;5012601;28;20404;-62
2022/03/07 04:54:48;;;;;;;0.90;0.90;;;;;;;;;;5012671;28;20428;-63
2022/03/07 04:57:14;;;;;;;0.90;0.90;;;;;;;;;;5012737;28;20427;-62
2022/03/07 04:59:40;;;;;;;0.80;0.80;;;;;;;;;;5012463;28;20448;-63
2022/03/07 05:02:06;;;;;;;1.00;1.00;;;;;;;;;;5012566;28;20413;-63
2022/03/07 05:04:32;;;;;;;1.00;1.00;;;;;;;;;;5012680;28;20501;-62
2022/03/07 05:06:58;;;;;;;1.00;1.00;;;;;;;;;;5012473;28;20467;-62
2022/03/07 05:09:24;;;;;;;1.13;1.13;;;;;;;;;;5012346;28;20446;-62
2022/03/07 05:11:50;;;;;;;0.90;0.90;;;;;;;;;;5012232;28;20412;-63
2022/03/07 05:14:18;;;;;;;0.80;0.80;;;;;;;;;;5012507;28;20174;-63
2022/03/07 05:16:43;;;;;;;0.98;0.98;;;;;;;;;;5012392;28;20682;-63
2022/03/07 05:19:10;;;;;;;1.10;1.10;;;;;;;;;;5012404;28;20192;-62
2022/03/07 05:21:36;;;;;;;1.10;1.10;;;;;;;;;;5012041;28;20440;-63
2022/03/07 05:24:01;;;;;;;1.40;1.40;;;;;;;;;;5012144;28;20180;-62
2022/03/07 05:26:27;;;;;;;1.27;1.27;;;;;;;;;;5012188;28;20538;-62
2022/03/07 05:28:53;;;;;;;1.00;1.00;;;;;;;;;;5012252;28;20776;-63
2022/03/07 05:31:19;;;;;;;1.00;1.00;;;;;;;;;;5004829;28;20430;-63
2022/03/07 05:33:45;;;;;;;0.85;0.85;;;;;;;;;;4992273;28;20440;-62
2022/03/07 05:36:11;;;;;;;0.93;0.93;;;;;;;;;;4992443;28;20214;-63
2022/03/07 05:38:37;;;;;;;1.30;1.30;;;;;;;;;;4992508;28;20421;-62
2022/03/07 05:41:03;;;;;;;0.95;0.95;;;;;;;;;;4992133;28;20443;-63
2022/03/07 05:43:29;;;;;;;1.15;1.15;;;;;;;;;;4992420;28;20185;-63
2022/03/07 05:45:55;;;;;;;1.13;1.13;;;;;;;;;;4992344;28;20213;-63
2022/03/07 05:48:21;;;;;;;1.27;1.27;;;;;;;;;;4992316;28;20416;-63
2022/03/07 05:50:47;;;;;;;1.00;1.00;;;;;;;;;;4991986;28;20429;-63
2022/03/07 05:53:13;;;;;;;1.23;1.23;;;;;;;;;;4992269;28;20410;-63
2022/03/07 05:55:39;;;;;;;1.30;1.30;;;;;;;;;;4992349;28;20449;-63
2022/03/07 05:58:05;;;;;;;2.35;2.25;;;;;;;;;;4992273;28;20468;-63
2022/03/07 06:00:31;;;;;;;1.10;1.10;;;;;;;;;;4991828;28;20218;-63
2022/03/07 06:02:57;;;;;;;0.90;0.90;;;;;;;;;;5007557;28;20757;-63
2022/03/07 06:05:23;;;;;;;0.98;0.98;;;;;;;;;;4991826;28;20210;-63
2022/03/07 06:07:49;;;;;;;0.90;0.90;;;;;;;;;;4991996;28;20174;-63
2022/03/07 06:10:15;;;;;;;0.90;0.90;;;;;;;;;;4991805;28;20292;-63
2022/03/07 06:12:41;;;;;;;0.80;0.80;;;;;;;;;;4992224;28;20513;-63
2022/03/07 06:15:07;;;;;;;0.87;0.87;;;;;;;;;;4991856;28;20171;-63
2022/03/07 06:17:34;;;;;;;1.02;1.02;;;;;;;;;;4992160;28;20414;-63
2022/03/07 06:20:00;;;;;;;1.10;1.10;;;;;;;;;;4991936;28;20199;-63
2022/03/07 06:22:26;;;;;;;1.15;1.15;;;;;;;;;;4991882;28;20166;-63
2022/03/07 06:24:52;;;;;;;1.17;1.17;;;;;;;;;;4991965;28;20171;-63
2022/03/07 06:27:18;;;;;;;1.40;1.40;;;;;;;;;;4992012;28;20409;-63
2022/03/07 06:29:44;;;;;;;2.23;2.13;;;;;;;;;;4991907;28;20217;-63
2022/03/07 06:32:10;;;;;;;1.23;1.23;;;;;;;;;;4991641;28;20919;-63
2022/03/07 06:34:36;;;;;;;0.90;0.90;;;;;;;;;;4991813;28;20888;-62
2022/03/07 06:37:02;;;;;;;0.80;0.80;;;;;;;;;;4991765;28;20178;-63
2022/03/07 06:39:28;;;;;;;1.02;1.02;;;;;;;;;;4991731;28;20488;-63
2022/03/07 06:41:55;;;;;;;1.40;1.40;;;;;;;;;;4991520;28;20273;-63
2022/03/07 06:44:21;;;;;;;1.27;1.27;;;;;;;;;;4994686;28;20178;-63
2022/03/07 06:46:47;;;;;;;1.30;1.30;;;;;;;;;;4995505;28;20249;-63
2022/03/07 06:49:13;;;;;;;2.35;2.25;;;;;;;;;;4995061;28;20413;-63
2022/03/07 06:51:39;;;;;;;1.40;1.40;;;;;;;;;;4994995;28;20205;-63
2022/03/07 06:54:05;;;;;;;2.78;2.67;;;;;;;;;;4995325;28;20642;-63
2022/03/07 06:56:31;;;;;;;1.63;1.63;;;;;;;;;;4995314;28;20258;-63
2022/03/07 06:58:59;;;;;;;1.80;1.80;;;;;;;;;;4995316;28;20227;-63
2022/03/07 07:01:25;;;;;;;1.70;1.70;;;;;;;;;;4994840;28;20463;-63
2022/03/07 07:03:51;;;;;;;1.37;1.37;;;;;;;;;;4995158;28;20649;-63
2022/03/07 07:06:17;;;;;;;1.83;1.83;;;;;;;;;;4994987;28;20453;-62
2022/03/07 07:08:43;;;;;;;1.17;1.17;;;;;;;;;;4995050;28;20883;-63
2022/03/07 07:11:08;;;;;;;1.63;1.63;;;;;;;;;;4994728;28;20820;-63
2022/03/07 07:13:34;;;;;;;2.97;2.80;;;;;;;;;;4994969;28;20753;-63
2022/03/07 07:16:00;;;;;;;2.13;2.13;;;;;;;;;;4994988;28;20834;-63
2022/03/07 07:18:26;;;;;;;2.00;1.90;;;;;;;;;;4994870;28;20409;-63
2022/03/07 07:20:53;;;;;;;1.37;1.37;;;;;;;;;;4994524;28;20226;-63
2022/03/07 07:23:20;;;;;;;1.10;1.10;;;;;;;;;;4994891;28;20414;-63
2022/03/07 07:25:46;;;;;;;1.10;1.10;;;;;;;;;;4994778;28;20245;-63
2022/03/07 07:28:13;;;;;;;1.00;1.00;;;;;;;;;;4994933;28;20189;-63
2022/03/07 07:30:39;;;;;;;1.67;1.67;;;;;;;;;;4994364;28;20187;-63
2022/03/07 07:33:06;;;;;;;1.20;1.20;;;;;;;;;;4994852;28;20336;-63
2022/03/07 07:35:34;;;;;;;1.10;1.10;;;;;;;;;;4994506;28;20217;-63
2022/03/07 07:38:00;;;;;;;1.27;1.27;;;;;;;;;;4994496;28;20680;-63
2022/03/07 07:40:26;;;;;;;1.33;1.33;;;;;;;;;;4994194;28;20199;-63
2022/03/07 07:42:51;;;;;;;1.15;1.15;;;;;;;;;;4994690;28;20178;-63
2022/03/07 07:45:17;;;;;;;0.80;0.80;;;;;;;;;;4994451;28;20573;-63
2022/03/07 07:47:43;;;;;;;1.17;1.17;;;;;;;;;;4994392;28;20917;-63
2022/03/07 07:50:10;;;;;;;0.87;0.87;;;;;;;;;;4994131;28;20198;-63
2022/03/07 07:52:36;;;;;;;0.85;0.85;;;;;;;;;;4994266;28;20406;-63
2022/03/07 07:55:04;;;;;;;1.00;1.00;;;;;;;;;;4993542;28;20241;-63
2022/03/07 07:57:30;;;;;;;1.00;1.00;;;;;;;;;;4994319;28;20500;-63
2022/03/07 07:59:56;;;;;;;1.13;1.13;;;;;;;;;;4994077;28;20699;-63
2022/03/07 08:02:22;;;;;;;1.37;1.37;;;;;;;;;;4993914;28;20883;-63
2022/03/07 08:04:51;;;;;;;1.40;1.40;;;;;;;;;;4994005;28;20422;-63
2022/03/07 08:07:17;;;;;;;1.10;1.10;;;;;;;;;;5007911;28;20545;-63
2022/03/07 08:09:43;;;;;;;0.93;0.93;;;;;;;;;;5013166;28;20684;-63
2022/03/07 08:12:10;;;;;;;1.88;1.88;;;;;;;;;;4995431;28;20232;-62
2022/03/07 08:14:36;;;;;;;1.35;1.35;;;;;;;;;;4995614;28;20186;-62
2022/03/07 08:17:03;;;;;;;2.55;2.45;;;;;;;;;;4998800;28;20184;-61
2022/03/07 08:19:29;;;;;;;1.60;1.58;;;;;;;;;;5013082;28;20186;-63
2022/03/07 08:21:55;;;;;;;1.20;1.20;;;;;;;;;;5013113;28;20208;-63
2022/03/07 08:24:23;;;;;;;1.97;1.97;;;;;;;;;;5013132;28;20200;-62
2022/03/07 08:26:49;;;;;;;1.15;1.15;;;;;;;;;;5013174;28;20452;-63
2022/03/07 08:29:15;;;;;;;1.50;1.50;;;;;;;;;;5012888;28;20413;-63
2022/03/07 08:31:41;;;;;;;1.40;1.40;;;;;;;;;;5012631;28;20420;-63
2022/03/07 08:34:06;;;;;;;1.47;1.47;;;;;;;;;;5005466;28;20913;-63
2022/03/07 08:36:33;;;;;;;1.53;1.53;;;;;;;;;;4993609;28;20816;-63
2022/03/07 08:38:59;;;;;;;1.40;1.40;;;;;;;;;;4993421;28;20416;-63
2022/03/07 08:41:25;;;;;;;1.33;1.33;;;;;;;;;;4993201;28;20209;-63
2022/03/07 08:43:52;;;;;;;0.90;0.90;;;;;;;;;;4993360;28;20618;-63
2022/03/07 08:46:18;;;;;;;0.95;0.95;;;;;;;;;;4992992;28;20450;-63
2022/03/07 08:48:44;;;;;;;0.97;0.97;;;;;;;;;;4993578;28;20182;-63
2022/03/07 08:51:10;;;;;;;1.00;1.00;;;;;;;;;;4992911;28;20425;-63
2022/03/07 08:53:37;;;;;;;0.97;0.97;;;;;;;;;;4993108;28;20206;-63
2022/03/07 08:56:03;;;;;;;1.10;1.10;;;;;;;;;;4993232;28;20417;-63
2022/03/07 08:58:29;;;;;;;0.90;0.90;;;;;;;;;;4993184;28;20175;-63
2022/03/07 09:00:55;;;;;;;1.53;1.53;;;;;;;;;;4992563;28;20649;-63
2022/03/07 09:03:21;;;;;;;0.90;0.90;;;;;;;;;;4993288;28;20543;-63
2022/03/07 09:05:47;;;;;;;0.90;0.90;;;;;;;;;;4992942;28;20209;-63
2022/03/07 09:08:12;;;;;;;1.30;1.30;;;;;;;;;;4992956;28;20471;-63
2022/03/07 09:10:38;;;;;;;0.87;0.87;;;;;;;;;;4992581;28;20433;-63
2022/03/07 09:13:04;;;;;;;1.20;1.20;;;;;;;;;;4993018;28;20409;-63
2022/03/07 09:15:30;;;;;;;0.80;0.80;;;;;;;;;;4992829;28;20401;-63
2022/03/07 09:17:56;;;;;;;0.63;0.63;;;;;;;;;;4992898;28;20492;-64
2022/03/07 09:20:23;;;;;;;2.05;1.95;;;;;;;;;;4992400;28;20964;-64
2022/03/07 09:22:49;;;;;;;1.30;1.30;;;;;;;;;;4992778;28;20643;-64
2022/03/07 09:25:15;;;;;;;1.20;1.20;;;;;;;;;;4992766;28;20293;-63
2022/03/07 09:27:43;;;;;;;1.30;1.30;;;;;;;;;;4992750;28;20421;-63
2022/03/07 09:30:09;;;;;;;1.10;1.10;;;;;;;;;;4992304;28;20186;-64
2022/03/07 09:32:36;;;;;;;0.90;0.90;;;;;;;;;;4992332;28;20179;-62
2022/03/07 09:35:01;;;;;;;1.02;1.02;;;;;;;;;;4992512;28;20166;-63
2022/03/07 09:37:27;;;;;;;1.00;1.00;;;;;;;;;;4992553;28;20170;-64
2022/03/07 09:39:53;;;;;;;1.37;1.37;;;;;;;;;;4992659;28;20472;-64
2022/03/07 09:42:21;;;;;;;0.97;0.97;;;;;;;;;;4992328;28;20819;-64
2022/03/07 09:44:47;;;;;;;1.00;1.00;;;;;;;;;;4992260;28;20436;-62
2022/03/07 09:47:13;;;;;;;0.80;0.80;;;;;;;;;;4992429;28;20472;-62
2022/03/07 09:49:39;;;;;;;0.57;0.57;;;;;;;;;;4992339;28;20424;-62
2022/03/07 09:52:05;;;;;;;0.50;0.50;;;;;;;;;;4992051;28;20468;-62
2022/03/07 09:54:31;;;;;;;0.40;0.40;;;;;;;;;;4992622;28;20516;-62
2022/03/07 09:56:57;;;;;;;0.50;0.50;;;;;;;;;;4992070;28;20441;-62
2022/03/07 09:59:24;;;;;;;0.53;0.53;;;;;;;;;;4992024;28;20411;-62
2022/03/07 10:02:04;;;;;;;0.50;0.50;;;;;;;;;;5031829;22;20850;-59
2022/03/07 10:04:31;;;;;;;0.50;0.50;;;;;;;;;;5011657;28;20942;-61
2022/03/07 10:06:57;;;;;;;0.50;0.50;;;;;;;;;;5011636;28;20547;-62
2022/03/07 10:09:25;;;;;;;0.40;0.40;;;;;;;;;;5011674;28;20459;-58
2022/03/07 10:11:52;;;;;;;0.40;0.40;;;;;;;;;;5011335;28;20475;-60
2022/03/07 10:14:18;;;;;;;0.40;0.40;;;;;;;;;;5011456;28;20175;-58
2022/03/07 10:16:45;;;;;;;0.40;0.40;;;;;;;;;;5011457;28;20249;-60
2022/03/07 10:19:15;;;;;;;0.40;0.40;;;;;;;;;;5014346;28;20625;-59
2022/03/07 10:21:48;;;;;;;0.40;0.40;;;;;;;;;;5015247;28;20512;-60
2022/03/07 10:24:14;;;;;;;0.50;0.50;;;;;;;;;;5015449;28;20645;-59
2022/03/07 10:26:40;;;;;;;0.50;0.50;;;;;;;;;;5015424;28;20287;-61
2022/03/07 10:29:06;;;;;;;0.40;0.40;;;;;;;;;;5015349;28;20181;-60
2022/03/07 10:31:33;;;;;;;0.50;0.50;;;;;;;;;;5015234;28;20283;-59
2022/03/07 10:34:04;;;;;;;0.50;0.50;;;;;;;;;;5015292;28;20172;-61
2022/03/07 10:36:34;;;;;;;0.45;0.45;;;;;;;;;;5015250;28;20180;-59
2022/03/07 10:39:00;;;;;;;0.50;0.50;;;;;;;;;;5015195;28;20174;-59
2022/03/07 10:41:34;;;;;;;0.40;0.40;;;;;;;;;;5014891;28;20204;-59
2022/03/07 10:44:00;;;;;;;0.50;0.50;;;;;;;;;;5015140;28;20265;-60
2022/03/07 10:46:26;;;;;;;0.50;0.50;;;;;;;;;;5014819;28;20664;-60
2022/03/07 10:48:54;;;;;;;0.50;0.50;;;;;;;;;;5015058;28;20426;-61
2022/03/07 10:51:20;;;;;;;0.50;0.50;;;;;;;;;;5014717;28;20328;-61
2022/03/07 10:53:46;;;;;;;0.50;0.50;;;;;;;;;;5015012;28;20786;-61
2022/03/07 10:56:17;;;;;;;0.45;0.45;;;;;;;;;;5015025;28;20180;-61
2022/03/07 10:58:50;;;;;;;0.50;0.50;;;;;;;;;;5015097;28;20597;-60
2022/03/07 11:01:27;;;;;;;0.50;0.50;;;;;;;;;;5014601;28;20209;-61
2022/03/07 11:03:53;;;;;;;0.40;0.40;;;;;;;;;;5015074;28;20177;-62
2022/03/07 11:06:19;;;;;;;0.40;0.40;;;;;;;;;;5014889;28;20279;-61
2022/03/07 11:08:46;;;;;;;0.50;0.50;;;;;;;;;;5014881;28;20408;-61
2022/03/07 11:11:13;;;;;;;0.40;0.40;;;;;;;;;;5014624;28;20201;-62
2022/03/07 11:13:39;;;;;;;0.50;0.50;;;;;;;;;;5014613;28;20173;-63
2022/03/07 11:16:05;;;;;;;0.47;0.47;;;;;;;;;;5014624;28;20411;-62
2022/03/07 11:18:32;;;;;;;0.40;0.40;;;;;;;;;;5014539;28;20436;-62
2022/03/07 11:20:58;;;;;;;0.40;0.40;;;;;;;;;;5014187;28;20236;-60
2022/03/07 11:23:24;;;;;;;0.50;0.50;;;;;;;;;;5014400;28;20553;-61
2022/03/07 11:25:51;;;;;;;0.50;0.50;;;;;;;;;;5014324;28;20205;-60
2022/03/07 11:28:17;;;;;;;0.50;0.50;;;;;;;;;;5014414;28;20545;-61
2022/03/07 11:30:44;;;;;;;0.55;0.55;;;;;;;;;;5013013;28;20204;-59
2022/03/07 11:33:13;;;;;;;0.50;0.50;;;;;;;;;;5014416;28;20176;-61
2022/03/07 11:35:43;;;;;;;0.40;0.40;;;;;;;;;;5014258;28;20176;-61
2022/03/07 11:38:10;;;;;;;0.57;0.57;;;;;;;;;;5014204;28;20172;-60
2022/03/07 11:40:53;;;;;;;0.50;0.50;;;;;;;;;;5013826;28;20279;-61
2022/03/07 11:43:19;;;;;;;0.50;0.50;;;;;;;;;;5014143;28;20180;-61
2022/03/07 11:45:45;;;;;;;0.50;0.50;;;;;;;;;;5013898;28;20225;-61
2022/03/07 11:48:14;;;;;;;0.50;0.50;;;;;;;;;;5013922;28;20550;-61
2022/03/07 11:50:40;;;;;;;0.60;0.60;;;;;;;;;;5012799;28;20201;-61
2022/03/07 11:53:06;;;;;;;0.60;0.60;;;;;;;;;;5013874;28;20664;-61
2022/03/07 11:55:33;;;;;;;0.50;0.50;;;;;;;;;;5013847;28;20185;-58
2022/03/07 11:58:04;;;;;;;0.50;0.50;;;;;;;;;;5013763;28;20181;-61
2022/03/07 12:00:35;;;;;;;0.55;0.55;;;;;;;;;;5013418;28;20245;-61
2022/03/07 12:03:14;;;;;;;0.60;0.60;;;;;;;;;;5013647;28;20174;-61
2022/03/07 12:05:41;;;;;;;0.50;0.50;;;;;;;;;;5013727;28;20288;-61
2022/03/07 12:08:12;;;;;;;0.50;0.50;;;;;;;;;;5013631;28;20515;-62
2022/03/07 12:10:40;;;;;;;0.60;0.60;;;;;;;;;;5013128;28;20592;-61
2022/03/07 12:13:07;;;;;;;0.50;0.50;;;;;;;;;;5013812;28;20657;-59
2022/03/07 12:15:43;;;;;;;0.50;0.50;;;;;;;;;;5012960;28;20649;-61
2022/03/07 12:18:09;;;;;;;0.50;0.50;;;;;;;;;;5013492;28;20576;-61
2022/03/07 12:20:35;;;;;;;0.60;0.60;;;;;;;;;;5013167;28;20277;-62
2022/03/07 12:23:01;;;;;;;0.50;0.50;;;;;;;;;;5013398;28;20420;-62
2022/03/07 12:25:27;;;;;;;0.50;0.50;;;;;;;;;;5013147;28;20904;-62
2022/03/07 12:27:56;;;;;;;0.50;0.50;;;;;;;;;;5013180;28;20327;-62
2022/03/07 12:30:24;;;;;;;0.55;0.55;;;;;;;;;;5012455;28;20435;-60
2022/03/07 12:32:50;;;;;;;0.45;0.45;;;;;;;;;;5012899;28;20715;-60
2022/03/07 12:35:19;;;;;;;0.40;0.40;;;;;;;;;;5013210;28;20209;-60
2022/03/07 12:37:45;;;;;;;0.40;0.40;;;;;;;;;;5013174;28;20906;-60
2022/03/07 12:40:11;;;;;;;0.50;0.50;;;;;;;;;;5012848;28;20200;-59
2022/03/07 12:42:42;;;;;;;0.60;0.60;;;;;;;;;;5013971;28;20443;-58
2022/03/07 12:45:09;;;;;;;0.50;0.50;;;;;;;;;;5014423;28;20734;-60
2022/03/07 12:47:39;;;;;;;0.50;0.50;;;;;;;;;;5012903;28;20653;-60
2022/03/07 12:50:06;;;;;;;0.60;0.60;;;;;;;;;;5012765;28;20197;-60
2022/03/07 12:52:37;;;;;;;0.40;0.40;;;;;;;;;;5012717;28;20166;-60
2022/03/07 12:55:07;;;;;;;0.70;0.70;;;;;;;;;;5012634;28;20198;-60
2022/03/07 12:57:32;;;;;;;0.50;0.50;;;;;;;;;;5012749;28;20549;-59
2022/03/07 13:00:04;;;;;;;0.60;0.60;;;;;;;;;;5012470;28;20176;-61
2022/03/07 13:02:54;;;;;;;0.40;0.40;;;;;;;;;;5012402;28;20396;-60
2022/03/07 13:05:21;;;;;;;0.50;0.50;;;;;;;;;;5012504;28;20205;-60
2022/03/07 13:07:55;;;;;;;0.40;0.40;;;;;;;;;;5012543;28;20165;-61
2022/03/07 13:10:22;;;;;;;0.50;0.50;;;;;;;;;;5012274;28;20280;-60
2022/03/07 13:12:48;;;;;;;0.60;0.60;;;;;;;;;;5012428;28;20169;-60
2022/03/07 13:15:14;;;;;;;0.52;0.52;;;;;;;;;;5012481;28;20170;-60
2022/03/07 13:17:40;;;;;;;0.60;0.60;;;;;;;;;;5012225;28;20262;-59
2022/03/07 13:20:10;;;;;;;0.52;0.52;;;;;;;;;;5012266;28;20880;-59
2022/03/07 13:22:36;;;;;;;0.60;0.60;;;;;;;;;;5012468;28;20181;-60
2022/03/07 13:25:04;;;;;;;0.50;0.50;;;;;;;;;;5012140;28;20185;-60
2022/03/07 13:27:30;;;;;;;0.60;0.60;;;;;;;;;;5012192;28;20208;-60
2022/03/07 13:30:23;;;;;;;0.60;0.60;;;;;;;;;;5012057;28;20578;-59
2022/03/07 13:32:49;;;;;;;0.45;0.45;;;;;;;;;;5009312;28;20197;-60
2022/03/07 13:35:22;;;;;;;0.50;0.50;;;;;;;;;;5012223;28;20641;-60
2022/03/07 13:37:48;;;;;;;0.50;0.50;;;;;;;;;;5012219;28;20408;-60
2022/03/07 13:40:16;;;;;;;0.70;0.70;;;;;;;;;;5012000;28;20944;-60
2022/03/07 13:42:42;;;;;;;0.50;0.50;;;;;;;;;;5012100;28;20177;-60
2022/03/07 13:45:19;;;;;;;0.50;0.50;;;;;;;;;;5011973;28;20260;-59
2022/03/07 13:47:46;;;;;;;0.70;0.70;;;;;;;;;;5011927;28;20715;-60
2022/03/07 13:50:16;;;;;;;0.60;0.60;;;;;;;;;;5011634;28;20672;-60
2022/03/07 13:52:43;;;;;;;0.60;0.60;;;;;;;;;;5011226;28;20165;-58
2022/03/07 13:55:14;;;;;;;0.50;0.50;;;;;;;;;;5011874;28;20177;-60
2022/03/07 13:57:45;;;;;;;0.60;0.60;;;;;;;;;;5012170;28;20173;-60
2022/03/07 14:00:15;;;;;;;0.60;0.60;;;;;;;;;;5011365;28;20637;-59
2022/03/07 14:02:45;;;;;;;0.55;0.55;;;;;;;;;;5011993;28;20205;-59
2022/03/07 14:05:11;;;;;;;0.60;0.60;;;;;;;;;;5011819;28;20180;-59
2022/03/07 14:07:41;;;;;;;0.60;0.60;;;;;;;;;;5011985;28;20177;-58
2022/03/07 14:10:09;;;;;;;0.60;0.60;;;;;;;;;;5011659;28;20194;-60
2022/03/07 14:12:36;;;;;;;0.60;0.60;;;;;;;;;;5011840;28;20172;-60
2022/03/07 14:15:10;;;;;;;0.60;0.60;;;;;;;;;;5011818;28;20174;-60
2022/03/07 14:17:36;;;;;;;0.55;0.55;;;;;;;;;;5011649;28;20168;-60
2022/03/07 14:20:11;;;;;;;0.60;0.60;;;;;;;;;;5011433;28;20184;-60
2022/03/07 14:22:38;;;;;;;0.60;0.60;;;;;;;;;;5011658;28;20222;-60
2022/03/07 14:25:05;;;;;;;0.63;0.63;;;;;;;;;;5012177;28;20174;-59
2022/03/07 14:27:32;;;;;;;0.60;0.60;;;;;;;;;;5012047;28;20173;-62
2022/03/07 14:30:01;;;;;;;0.73;0.73;;;;;;;;;;5009876;28;20185;-62
2022/03/07 14:32:27;;;;;;;0.60;0.60;;;;;;;;;;5011096;28;20176;-59
2022/03/07 14:34:54;;;;;;;0.60;0.60;;;;;;;;;;5011348;28;20166;-60
2022/03/07 14:37:34;;;;;;;0.50;0.50;;;;;;;;;;5010958;28;20668;-60
2022/03/07 14:40:00;;;;;;;0.70;0.70;;;;;;;;;;5011367;28;20192;-58
2022/03/07 14:42:27;;;;;;;0.60;0.60;;;;;;;;;;5011170;28;20204;-60